Time;durP1;ratioP1;P1;durP2;ratioP2;P2;SDS_P1;SDS_P2;PMS_P1;PMS_P2;Temp;Humidity;BMP_temperature;BMP_pressure;BME280_temperature;BME280_humidity;BME280_pressure;Samples;Min_cycle;Max_cycle;Signal;HPM_P1;HPM_P2
2022/09/14 00:00:06;;;;;;;1.65;1.30;;;25.00;88.00;;;;;;6337850;22;20017;-74
2022/09/14 00:02:31;;;;;;;1.85;1.40;;;25.00;87.80;;;;;;6338323;22;20028;-74
2022/09/14 00:04:57;;;;;;;4.85;1.88;;;25.00;87.60;;;;;;6337490;22;20085;-74
2022/09/14 00:07:23;;;;;;;1.52;1.20;;;24.90;87.50;;;;;;6338221;22;20060;-74
2022/09/14 00:09:50;;;;;;;3.42;1.60;;;24.90;87.50;;;;;;6338754;22;20068;-74
2022/09/14 00:12:16;;;;;;;5.07;1.65;;;24.90;87.60;;;;;;6338161;22;20428;-75
2022/09/14 00:14:42;;;;;;;1.58;1.30;;;24.80;87.70;;;;;;6337376;22;20013;-74
2022/09/14 00:17:07;;;;;;;3.05;1.75;;;24.80;87.60;;;;;;6338688;22;20052;-74
2022/09/14 00:19:33;;;;;;;3.30;1.73;;;24.80;87.70;;;;;;6338447;22;20393;-74
2022/09/14 00:21:59;;;;;;;3.45;1.45;;;24.90;87.70;;;;;;6339174;22;20423;-74
2022/09/14 00:24:28;;;;;;;3.42;1.90;;;24.90;88.20;;;;;;6338956;22;20003;-74
2022/09/14 00:26:54;;;;;;;2.50;1.60;;;24.90;87.60;;;;;;6337876;22;20478;-74
2022/09/14 00:29:20;;;;;;;6.38;1.50;;;24.90;87.50;;;;;;6310698;22;20011;-74
2022/09/14 00:31:46;;;;;;;1.98;1.25;;;24.80;87.50;;;;;;6337538;22;19999;-74
2022/09/14 00:34:14;;;;;;;4.43;1.42;;;24.80;87.50;;;;;;6338784;22;20333;-74
2022/09/14 00:36:43;;;;;;;2.92;1.77;;;24.80;87.40;;;;;;6336518;22;20007;-74
2022/09/14 00:39:10;;;;;;;2.67;1.50;;;24.80;87.30;;;;;;6338668;22;20003;-74
2022/09/14 00:41:39;;;;;;;3.53;1.70;;;24.80;87.30;;;;;;6337252;22;20666;-74
2022/09/14 00:44:11;;;;;;;1.88;1.23;;;24.80;87.30;;;;;;6336656;22;20010;-74
2022/09/14 00:46:42;;;;;;;2.97;1.85;;;24.80;87.30;;;;;;6336431;22;20006;-74
2022/09/14 00:49:31;;;;;;;2.25;1.38;;;24.80;87.20;;;;;;6338025;22;20100;-74
2022/09/14 00:52:17;;;;;;;2.42;1.55;;;24.80;87.20;;;;;;6337159;22;20022;-74
2022/09/14 00:54:56;;;;;;;2.40;1.80;;;24.80;87.20;;;;;;6337752;22;20003;-74
2022/09/14 00:57:23;;;;;;;2.42;1.35;;;24.80;87.30;;;;;;6337090;22;20025;-73
2022/09/14 00:59:51;;;;;;;3.28;1.50;;;24.70;87.20;;;;;;6337570;22;20003;-73
2022/09/14 01:02:19;;;;;;;2.03;1.33;;;24.70;87.20;;;;;;6338332;22;20355;-74
2022/09/14 01:04:46;;;;;;;3.00;1.83;;;24.70;87.20;;;;;;6338448;22;20472;-73
2022/09/14 01:07:15;;;;;;;3.83;1.35;;;24.70;87.10;;;;;;6337306;22;19999;-74
2022/09/14 01:10:09;;;;;;;1.92;1.70;;;24.70;87.00;;;;;;6337445;22;19995;-73
2022/09/14 01:13:18;;;;;;;2.33;1.60;;;24.70;87.10;;;;;;6303852;22;20003;-73
2022/09/14 01:16:07;;;;;;;3.47;1.67;;;24.70;87.10;;;;;;6335587;22;20010;-73
2022/09/14 01:18:37;;;;;;;3.70;1.27;;;24.60;87.00;;;;;;6338831;22;20002;-74
2022/09/14 01:21:06;;;;;;;2.45;1.55;;;24.60;87.00;;;;;;6338264;22;20013;-74
2022/09/14 01:23:47;;;;;;;2.40;1.30;;;24.60;87.10;;;;;;6338097;22;19999;-74
2022/09/14 01:26:13;;;;;;;1.92;1.50;;;24.60;87.10;;;;;;6336717;22;20003;-74
2022/09/14 01:28:57;;;;;;;3.67;1.48;;;24.60;87.10;;;;;;6337360;22;19999;-74
2022/09/14 01:31:35;;;;;;;3.67;1.75;;;24.60;87.10;;;;;;6337796;22;20060;-73
2022/09/14 01:34:23;;;;;;;2.38;1.58;;;24.70;87.10;;;;;;6337289;22;20056;-73
2022/09/14 01:36:55;;;;;;;3.47;1.50;;;24.70;87.10;;;;;;6337157;22;20038;-73
2022/09/14 01:39:22;;;;;;;4.03;2.00;;;24.70;87.00;;;;;;6338413;22;20006;-73
2022/09/14 01:41:50;;;;;;;2.17;1.52;;;24.70;87.50;;;;;;6337491;22;20026;-73
2022/09/14 01:44:22;;;;;;;3.30;2.10;;;24.70;87.00;;;;;;6337969;22;20019;-73
2022/09/14 01:46:58;;;;;;;5.55;2.50;;;24.70;87.30;;;;;;6335131;22;20025;-73
2022/09/14 01:49:38;;;;;;;3.67;2.08;;;24.60;86.50;;;;;;6339235;22;20420;-73
2022/09/14 01:52:15;;;;;;;2.35;1.77;;;24.60;86.60;;;;;;6336315;22;20003;-76
2022/09/14 01:54:47;;;;;;;4.72;2.25;;;24.60;86.60;;;;;;6338248;22;20003;-78
2022/09/14 01:57:23;;;;;;;4.00;2.40;;;24.60;86.60;;;;;;6337038;22;20030;-78
2022/09/14 01:59:54;;;;;;;4.20;2.22;;;24.60;86.60;;;;;;6310068;22;20424;-79
2022/09/14 02:02:27;;;;;;;6.72;2.28;;;24.60;86.60;;;;;;6336381;22;20078;-78
2022/09/14 02:05:12;;;;;;;3.28;2.00;;;24.60;86.70;;;;;;6336935;22;20027;-78
2022/09/14 02:07:38;;;;;;;4.30;2.50;;;24.70;86.70;;;;;;6309403;22;19995;-77
2022/09/14 02:10:08;;;;;;;4.93;2.20;;;24.60;87.20;;;;;;6337515;22;20003;-78
2022/09/14 02:12:35;;;;;;;5.45;2.78;;;24.50;86.70;;;;;;6335994;22;19998;-79
2022/09/14 02:15:01;;;;;;;3.55;2.47;;;24.60;86.80;;;;;;6336456;22;20014;-78
2022/09/14 02:17:28;;;;;;;4.15;2.17;;;24.50;86.60;;;;;;6337198;22;20002;-78
2022/09/14 02:20:00;;;;;;;4.50;2.30;;;24.60;86.70;;;;;;6337916;22;20007;-78
2022/09/14 02:22:27;;;;;;;4.13;2.60;;;24.60;86.80;;;;;;6337079;22;19999;-78
2022/09/14 02:24:53;;;;;;;8.70;3.05;;;24.60;86.70;;;;;;6338518;22;20075;-78
2022/09/14 02:27:19;;;;;;;4.47;2.90;;;24.50;86.70;;;;;;6337853;22;19999;-79
2022/09/14 02:29:45;;;;;;;3.53;2.60;;;24.50;86.80;;;;;;6337611;22;20011;-80
2022/09/14 02:32:20;;;;;;;3.33;2.55;;;24.50;87.00;;;;;;6335283;22;20003;-80
2022/09/14 02:34:56;;;;;;;3.60;2.67;;;24.50;87.00;;;;;;6337731;22;20080;-80
2022/09/14 02:37:56;;;;;;;4.43;2.42;;;24.50;87.00;;;;;;6310036;22;20314;-80
2022/09/14 02:40:31;;;;;;;4.05;2.45;;;24.50;87.00;;;;;;6337185;22;20030;-80
2022/09/14 02:43:27;;;;;;;3.03;2.20;;;24.50;87.00;;;;;;6338714;22;20081;-81
2022/09/14 02:46:14;;;;;;;2.55;1.88;;;24.50;87.30;;;;;;6335709;22;20011;-80
2022/09/14 02:48:50;;;;;;;2.40;2.20;;;24.50;87.30;;;;;;6341692;22;19999;-79
2022/09/14 02:51:33;;;;;;;2.63;1.80;;;24.50;87.30;;;;;;6338827;22;19999;-79
2022/09/14 02:54:23;;;;;;;2.47;2.10;;;24.50;87.50;;;;;;6340594;22;19999;-78
2022/09/14 02:56:49;;;;;;;;;;;24.50;87.40;;;;;;6341515;22;19994;-79
2022/09/14 02:59:15;;;;;;;4.20;2.25;;;24.50;87.50;;;;;;6340295;22;19977;-78
2022/09/14 03:01:41;;;;;;;2.60;1.92;;;24.50;87.50;;;;;;6344525;22;20047;-79
2022/09/14 03:04:06;;;;;;;4.55;1.90;;;24.50;87.40;;;;;;6338412;22;20014;-79
2022/09/14 03:06:32;;;;;;;3.08;2.28;;;24.40;87.50;;;;;;6340341;22;20026;-78
2022/09/14 03:08:58;;;;;;;2.40;1.77;;;24.40;87.50;;;;;;6337411;22;19995;-79
2022/09/14 03:11:24;;;;;;;3.45;1.73;;;24.50;87.40;;;;;;6335438;22;20007;-78
2022/09/14 03:13:50;;;;;;;2.22;1.60;;;24.40;87.40;;;;;;6337772;22;20027;-78
2022/09/14 03:16:18;;;;;;;3.13;2.28;;;24.40;87.40;;;;;;6310764;22;20024;-78
2022/09/14 03:18:44;;;;;;;3.17;2.05;;;24.40;87.40;;;;;;6338177;22;20006;-80
2022/09/14 03:21:12;;;;;;;2.35;1.90;;;24.40;87.60;;;;;;6338675;22;19998;-78
2022/09/14 03:23:41;;;;;;;3.33;2.33;;;24.40;87.60;;;;;;6338426;22;20428;-78
2022/09/14 03:26:09;;;;;;;2.60;2.35;;;24.30;87.60;;;;;;6339969;22;20128;-81
2022/09/14 03:28:35;;;;;;;5.13;2.35;;;24.40;87.70;;;;;;6339642;22;20005;-81
2022/09/14 03:31:02;;;;;;;2.28;2.05;;;24.30;87.60;;;;;;6339007;22;20014;-78
2022/09/14 03:33:28;;;;;;;2.92;1.98;;;24.30;87.60;;;;;;6311480;22;20333;-77
2022/09/14 03:35:54;;;;;;;2.22;1.75;;;24.30;87.70;;;;;;6339487;22;20003;-78
2022/09/14 03:38:20;;;;;;;1.85;1.70;;;24.30;87.80;;;;;;6339379;22;20048;-79
2022/09/14 03:40:47;;;;;;;5.68;1.63;;;24.30;87.80;;;;;;6339884;22;20392;-80
2022/09/14 03:43:13;;;;;;;4.35;1.73;;;24.30;87.70;;;;;;6310384;22;20021;-80
2022/09/14 03:45:39;;;;;;;2.45;1.73;;;24.30;87.80;;;;;;6338887;22;20320;-80
2022/09/14 03:48:06;;;;;;;1.88;1.60;;;24.30;87.90;;;;;;6337632;22;20036;-80
2022/09/14 03:50:32;;;;;;;3.00;1.95;;;24.30;87.90;;;;;;6338823;22;20007;-79
2022/09/14 03:52:58;;;;;;;2.55;2.00;;;24.30;88.00;;;;;;6338784;22;20074;-80
2022/09/14 03:55:24;;;;;;;1.92;1.70;;;24.30;88.00;;;;;;6310923;22;20052;-79
2022/09/14 03:57:53;;;;;;;4.03;1.90;;;24.20;88.00;;;;;;6311089;22;20006;-79
2022/09/14 04:00:19;;;;;;;3.67;2.08;;;24.20;88.10;;;;;;6310936;22;20082;-79
2022/09/14 04:02:45;;;;;;;2.10;1.80;;;24.20;88.20;;;;;;6338357;22;20029;-79
2022/09/14 04:05:10;;;;;;;2.60;1.63;;;24.10;88.30;;;;;;6340042;22;19999;-79
2022/09/14 04:07:36;;;;;;;2.00;1.55;;;24.10;88.40;;;;;;6339109;22;20070;-79
2022/09/14 04:10:04;;;;;;;2.92;2.00;;;24.10;88.50;;;;;;6339596;22;20360;-78
2022/09/14 04:12:34;;;;;;;3.47;1.52;;;24.20;88.50;;;;;;6338160;22;20013;-79
2022/09/14 04:15:00;;;;;;;;;;;24.20;88.50;;;;;;6339923;22;20003;-79
2022/09/14 04:17:26;;;;;;;3.08;1.83;;;24.10;88.60;;;;;;6338322;22;20249;-79
2022/09/14 04:19:52;;;;;;;4.30;2.15;;;24.10;88.50;;;;;;6338856;22;20003;-80
2022/09/14 04:22:17;;;;;;;3.80;2.30;;;24.10;88.50;;;;;;6310865;22;20055;-80
2022/09/14 04:24:44;;;;;;;1.92;1.83;;;24.10;88.60;;;;;;6339217;22;19999;-81
2022/09/14 04:27:10;;;;;;;3.55;2.17;;;24.10;88.60;;;;;;6310175;22;20022;-81
2022/09/14 04:29:36;;;;;;;2.80;1.90;;;24.10;88.60;;;;;;6338890;22;20014;-80
2022/09/14 04:32:02;;;;;;;3.03;2.20;;;24.10;88.70;;;;;;6336933;22;20005;-79
2022/09/14 04:34:27;;;;;;;3.03;2.25;;;24.10;88.70;;;;;;6338097;22;20003;-78
2022/09/14 04:36:53;;;;;;;2.78;2.33;;;24.10;88.80;;;;;;6338051;22;20002;-78
2022/09/14 04:39:19;;;;;;;3.85;2.75;;;24.10;88.70;;;;;;6312454;22;20003;-78
2022/09/14 04:41:45;;;;;;;5.72;2.67;;;24.10;89.00;;;;;;6338568;22;20002;-77
2022/09/14 04:44:11;;;;;;;4.30;2.70;;;24.00;88.80;;;;;;6338882;22;20069;-77
2022/09/14 04:46:38;;;;;;;2.88;2.58;;;24.00;89.00;;;;;;6310803;22;19999;-77
2022/09/14 04:49:05;;;;;;;3.58;2.63;;;24.00;89.20;;;;;;6310933;22;20003;-78
2022/09/14 04:51:32;;;;;;;3.50;2.53;;;24.00;89.10;;;;;;6337463;22;20005;-78
2022/09/14 04:53:59;;;;;;;6.43;3.83;;;23.90;89.30;;;;;;6338663;22;19998;-79
2022/09/14 04:56:27;;;;;;;3.30;2.95;;;23.90;89.60;;;;;;6311418;22;20059;-78
2022/09/14 04:58:58;;;;;;;4.13;3.28;;;23.80;89.50;;;;;;6311196;22;20010;-74
2022/09/14 05:01:28;;;;;;;4.50;3.90;;;23.70;89.50;;;;;;6309578;22;20007;-74
2022/09/14 05:03:55;;;;;;;4.30;2.85;;;23.70;89.60;;;;;;6337172;22;20014;-74
2022/09/14 05:06:23;;;;;;;6.55;3.95;;;23.80;89.60;;;;;;6337003;22;20009;-74
2022/09/14 05:08:50;;;;;;;3.88;3.47;;;23.70;89.70;;;;;;6337261;22;19999;-74
2022/09/14 05:11:18;;;;;;;4.60;4.07;;;23.70;89.60;;;;;;6337748;22;19995;-73
2022/09/14 05:13:45;;;;;;;8.45;4.55;;;23.60;89.80;;;;;;6338202;22;19999;-74
2022/09/14 05:16:16;;;;;;;8.48;3.47;;;23.70;89.80;;;;;;6336420;22;20002;-74
2022/09/14 05:18:42;;;;;;;6.60;3.55;;;23.60;90.00;;;;;;6309887;22;19999;-74
2022/09/14 05:21:10;;;;;;;5.18;4.15;;;23.60;90.00;;;;;;6336483;22;19999;-74
2022/09/14 05:23:37;;;;;;;4.88;3.55;;;23.60;90.00;;;;;;6337097;22;20049;-73
2022/09/14 05:26:03;;;;;;;5.13;4.35;;;23.70;90.00;;;;;;6336750;22;19994;-73
2022/09/14 05:28:30;;;;;;;5.30;4.68;;;23.70;90.00;;;;;;6335924;22;20006;-74
2022/09/14 05:31:07;;;;;;;6.75;4.93;;;23.60;89.90;;;;;;6335879;22;20034;-78
2022/09/14 05:33:33;;;;;;;7.10;5.22;;;23.60;90.00;;;;;;6309171;22;20085;-77
2022/09/14 05:36:06;;;;;;;8.68;5.93;;;23.60;90.00;;;;;;6336931;22;20006;-74
2022/09/14 05:38:34;;;;;;;9.75;6.43;;;23.60;90.40;;;;;;6309271;22;20091;-74
2022/09/14 05:41:00;;;;;;;8.02;6.22;;;23.50;90.20;;;;;;6309176;22;20013;-76
2022/09/14 05:43:28;;;;;;;9.52;6.45;;;23.40;90.40;;;;;;6337110;22;19998;-77
2022/09/14 05:45:54;;;;;;;8.60;7.57;;;23.40;90.50;;;;;;6337723;22;20518;-78
2022/09/14 05:48:19;;;;;;;5.70;5.07;;;23.30;90.70;;;;;;6310271;22;20038;-74
2022/09/14 05:50:46;;;;;;;8.82;5.95;;;23.30;90.70;;;;;;6337877;22;19995;-74
2022/09/14 05:53:11;;;;;;;6.55;5.18;;;23.30;90.60;;;;;;6337643;22;20313;-80
2022/09/14 05:55:37;;;;;;;6.35;4.88;;;23.30;90.60;;;;;;6309791;22;20444;-79
2022/09/14 05:58:16;;;;;;;6.00;5.15;;;23.40;90.60;;;;;;6338702;22;20048;-79
2022/09/14 06:00:42;;;;;;;5.38;4.78;;;23.40;90.70;;;;;;6310991;22;20007;-74
2022/09/14 06:03:08;;;;;;;9.07;6.75;;;23.50;90.50;;;;;;6310471;22;20002;-75
2022/09/14 06:05:34;;;;;;;6.63;5.93;;;23.50;90.60;;;;;;6338514;22;20052;-76
2022/09/14 06:08:00;;;;;;;7.28;5.05;;;23.50;90.40;;;;;;6338433;22;20044;-74
2022/09/14 06:10:25;;;;;;;7.93;5.60;;;23.60;90.50;;;;;;6336567;22;20325;-74
2022/09/14 06:12:51;;;;;;;9.57;5.80;;;23.60;90.50;;;;;;6338461;22;20069;-74
2022/09/14 06:15:17;;;;;;;8.45;4.95;;;23.70;90.40;;;;;;6338299;22;20461;-75
2022/09/14 06:17:42;;;;;;;6.93;5.22;;;23.70;90.50;;;;;;6310998;22;20339;-75
2022/09/14 06:20:08;;;;;;;6.03;5.15;;;23.70;90.40;;;;;;6339235;22;20006;-75
2022/09/14 06:22:34;;;;;;;6.28;5.38;;;23.80;90.40;;;;;;6310533;22;20312;-75
2022/09/14 06:25:00;;;;;;;5.90;4.97;;;23.80;90.40;;;;;;6310367;22;20042;-74
2022/09/14 06:27:26;;;;;;;5.57;4.93;;;23.90;90.50;;;;;;6337763;22;20003;-76
2022/09/14 06:29:52;;;;;;;6.00;4.88;;;23.90;90.50;;;;;;6338638;22;20040;-79
2022/09/14 06:32:19;;;;;;;5.25;4.75;;;23.90;90.50;;;;;;6338943;22;20067;-80
2022/09/14 06:34:45;;;;;;;5.30;4.80;;;23.90;90.50;;;;;;6334846;22;20003;-78
2022/09/14 06:37:12;;;;;;;6.00;5.20;;;23.90;90.50;;;;;;6328867;22;19999;-75
2022/09/14 06:39:38;;;;;;;6.53;4.50;;;24.00;90.50;;;;;;6337575;22;20343;-78
2022/09/14 06:42:04;;;;;;;7.45;4.47;;;24.00;90.50;;;;;;6338014;22;20005;-78
2022/09/14 06:44:29;;;;;;;7.00;4.18;;;24.10;90.50;;;;;;6337979;22;20037;-78
2022/09/14 06:46:55;;;;;;;6.07;4.53;;;24.10;90.50;;;;;;6298208;22;19999;-75
2022/09/14 06:49:22;;;;;;;8.38;4.05;;;24.20;90.50;;;;;;6337306;22;20002;-75
2022/09/14 06:51:49;;;;;;;6.95;4.80;;;24.20;90.40;;;;;;6308655;22;20006;-75
2022/09/14 06:54:17;;;;;;;8.20;4.38;;;24.20;90.60;;;;;;6309542;22;20003;-79
2022/09/14 06:56:44;;;;;;;6.03;5.25;;;24.20;90.60;;;;;;6333032;22;20003;-78
2022/09/14 06:59:12;;;;;;;4.32;3.95;;;24.20;90.70;;;;;;6336213;22;20368;-75
2022/09/14 07:01:40;;;;;;;5.18;4.68;;;24.20;90.70;;;;;;6337636;22;20009;-78
2022/09/14 07:04:07;;;;;;;4.53;3.53;;;24.10;90.90;;;;;;6337498;22;19998;-77
2022/09/14 07:06:55;;;;;;;107.35;90.20;;;24.20;90.70;;;;;;6337027;22;19999;-77
2022/09/14 07:09:21;;;;;;;162.63;132.43;;;24.20;90.80;;;;;;6336735;22;20357;-77
2022/09/14 07:11:48;;;;;;;69.88;57.83;;;24.20;91.00;;;;;;6338052;22;20438;-77
2022/09/14 07:14:13;;;;;;;21.20;14.23;;;24.30;90.90;;;;;;6338461;22;19999;-79
2022/09/14 07:16:40;;;;;;;8.43;6.35;;;24.30;90.90;;;;;;6336953;22;20006;-78
2022/09/14 07:19:09;;;;;;;7.03;4.85;;;24.30;90.90;;;;;;6337764;22;20011;-78
2022/09/14 07:21:35;;;;;;;8.43;5.25;;;24.40;90.90;;;;;;6337321;22;20052;-79
2022/09/14 07:24:01;;;;;;;5.57;3.97;;;24.40;91.10;;;;;;6337775;22;20006;-79
2022/09/14 07:26:34;;;;;;;4.95;3.63;;;24.40;91.10;;;;;;6337779;22;20435;-79
2022/09/14 07:29:04;;;;;;;3.92;3.30;;;24.50;90.90;;;;;;6337056;22;20290;-79
2022/09/14 07:31:31;;;;;;;;;;;24.50;90.90;;;;;;6310659;22;20081;-80
2022/09/14 07:34:03;;;;;;;2.83;2.53;;;24.60;91.00;;;;;;6338037;22;19905;-79
2022/09/14 07:36:31;;;;;;;4.03;2.70;;;24.60;90.80;;;;;;6337434;22;20062;-80
2022/09/14 07:38:56;;;;;;;4.88;2.90;;;24.80;90.80;;;;;;6337548;22;19999;-79
2022/09/14 07:41:27;;;;;;;6.75;2.80;;;24.80;90.90;;;;;;6338349;22;20006;-80
2022/09/14 07:43:55;;;;;;;3.90;3.03;;;24.80;91.00;;;;;;6337972;22;20332;-79
2022/09/14 07:46:22;;;;;;;3.83;2.50;;;24.80;91.00;;;;;;6337463;22;20048;-80
2022/09/14 07:48:53;;;;;;;2.92;1.95;;;24.80;91.00;;;;;;6310693;22;20013;-76
2022/09/14 07:51:19;;;;;;;4.35;2.00;;;24.90;90.90;;;;;;6337223;22;20002;-75
2022/09/14 07:53:45;;;;;;;3.00;1.73;;;24.90;90.90;;;;;;6337372;22;20080;-75
2022/09/14 07:56:12;;;;;;;2.72;1.20;;;25.00;90.90;;;;;;6336196;22;20002;-75
2022/09/14 07:58:38;;;;;;;2.90;1.15;;;25.00;90.70;;;;;;6336619;22;20068;-80
2022/09/14 08:01:16;;;;;;;1.75;0.90;;;25.20;90.70;;;;;;6336421;22;20337;-80
2022/09/14 08:03:43;;;;;;;3.17;1.10;;;25.30;90.60;;;;;;6337180;22;20348;-80
2022/09/14 08:06:13;;;;;;;2.67;1.35;;;25.40;90.50;;;;;;6309948;22;20371;-80
2022/09/14 08:08:41;;;;;;;5.05;1.25;;;25.40;90.40;;;;;;6337236;22;20421;-79
2022/09/14 08:11:12;;;;;;;2.80;1.10;;;25.50;90.30;;;;;;6309277;22;20030;-79
2022/09/14 08:13:41;;;;;;;2.13;1.40;;;25.70;90.20;;;;;;6337745;22;19994;-79
2022/09/14 08:16:07;;;;;;;1.92;1.13;;;25.70;90.10;;;;;;6337393;22;20085;-79
2022/09/14 08:18:34;;;;;;;1.80;0.85;;;25.80;90.00;;;;;;6338573;22;20419;-80
2022/09/14 08:21:12;;;;;;;3.45;0.95;;;25.90;89.90;;;;;;6338108;22;20007;-79
2022/09/14 08:23:38;;;;;;;2.97;0.82;;;26.00;89.90;;;;;;6337733;22;20084;-79
2022/09/14 08:26:10;;;;;;;1.38;0.85;;;26.10;89.50;;;;;;6337044;22;20003;-79
2022/09/14 08:28:37;;;;;;;0.75;0.60;;;26.20;89.40;;;;;;6337190;22;20003;-79
2022/09/14 08:31:07;;;;;;;1.27;0.70;;;26.30;89.20;;;;;;6337699;22;20018;-80
2022/09/14 08:33:36;;;;;;;1.73;0.90;;;26.30;89.00;;;;;;6337455;22;19995;-80
2022/09/14 08:36:03;;;;;;;1.92;0.60;;;26.40;88.80;;;;;;6336976;22;20429;-80
2022/09/14 08:38:29;;;;;;;3.00;1.13;;;26.50;88.70;;;;;;6337685;22;20047;-80
2022/09/14 08:40:57;;;;;;;2.30;0.98;;;26.60;88.60;;;;;;6310055;22;20006;-80
2022/09/14 08:43:25;;;;;;;0.77;0.75;;;26.60;88.30;;;;;;6337790;22;20080;-80
2022/09/14 08:45:56;;;;;;;1.95;0.63;;;26.70;88.10;;;;;;6309437;22;20090;-80
2022/09/14 08:48:26;;;;;;;2.25;1.05;;;26.80;87.90;;;;;;6337366;22;20002;-77
2022/09/14 08:50:52;;;;;;;1.55;0.80;;;26.90;87.60;;;;;;6338622;22;20019;-76
2022/09/14 08:53:23;;;;;;;2.85;1.45;;;27.00;87.40;;;;;;6337522;22;19999;-76
2022/09/14 08:56:12;;;;;;;2.03;0.80;;;27.00;87.20;;;;;;6337464;22;20416;-77
2022/09/14 08:59:03;;;;;;;2.60;0.88;;;27.10;87.10;;;;;;6309957;22;20482;-77
2022/09/14 09:01:39;;;;;;;3.33;1.10;;;27.20;86.80;;;;;;6337705;22;20002;-76
2022/09/14 09:04:14;;;;;;;2.88;1.00;;;27.30;86.70;;;;;;6337717;22;20463;-77
2022/09/14 09:06:48;;;;;;;3.53;1.08;;;27.40;86.50;;;;;;6337680;22;20006;-76
2022/09/14 09:09:30;;;;;;;4.68;1.08;;;27.60;86.10;;;;;;6337014;22;20009;-76
2022/09/14 09:11:56;;;;;;;1.23;0.73;;;27.60;85.10;;;;;;6337560;22;20034;-77
2022/09/14 09:14:51;;;;;;;2.03;0.70;;;27.50;85.20;;;;;;6337703;22;20359;-76
2022/09/14 09:17:41;;;;;;;1.63;0.80;;;27.60;85.40;;;;;;6337331;22;20002;-76
2022/09/14 09:20:27;;;;;;;2.58;0.80;;;27.70;85.10;;;;;;6336961;22;20013;-76
2022/09/14 09:23:06;;;;;;;1.58;0.93;;;27.70;84.80;;;;;;6336107;22;20075;-77
2022/09/14 09:25:53;;;;;;;3.22;0.90;;;27.80;84.20;;;;;;6336843;22;20010;-77
2022/09/14 09:28:21;;;;;;;2.42;0.98;;;27.80;83.70;;;;;;6337341;22;20022;-76
2022/09/14 09:30:47;;;;;;;2.00;1.10;;;27.80;83.70;;;;;;6335816;22;20034;-79
2022/09/14 09:33:25;;;;;;;6.70;1.10;;;27.90;83.50;;;;;;6336212;22;19995;-80
2022/09/14 09:35:53;;;;;;;2.15;0.90;;;27.90;83.40;;;;;;6336889;22;20003;-76
2022/09/14 09:38:23;;;;;;;4.03;1.08;;;28.00;83.10;;;;;;6337127;22;20013;-75
2022/09/14 09:40:56;;;;;;;5.30;0.90;;;28.00;82.70;;;;;;6336975;22;20002;-76
2022/09/14 09:43:22;;;;;;;4.70;1.52;;;28.00;81.90;;;;;;6337087;22;20416;-80
2022/09/14 09:46:03;;;;;;;4.43;1.10;;;27.90;81.10;;;;;;6336777;22;20306;-80
2022/09/14 09:48:41;;;;;;;4.40;0.93;;;27.90;81.50;;;;;;6336323;22;19995;-80
2022/09/14 09:51:27;;;;;;;2.47;1.08;;;28.00;79.30;;;;;;6309769;22;20413;-81
2022/09/14 09:54:05;;;;;;;1.25;0.70;;;27.90;79.90;;;;;;6337259;22;19998;-80
2022/09/14 09:56:35;;;;;;;3.10;1.10;;;27.90;80.70;;;;;;6336360;22;20421;-79
2022/09/14 09:59:01;;;;;;;2.50;0.73;;;27.90;80.80;;;;;;6308916;22;20094;-81
2022/09/14 10:01:33;;;;;;;2.05;0.90;;;28.00;80.80;;;;;;6311133;22;20333;-79
2022/09/14 10:04:07;;;;;;;1.45;0.70;;;28.20;80.80;;;;;;6338520;22;20006;-80
2022/09/14 10:06:59;;;;;;;2.38;1.15;;;28.30;80.50;;;;;;6311399;22;20089;-81
2022/09/14 10:09:27;;;;;;;6.05;2.05;;;28.40;79.10;;;;;;6332929;22;20094;-82
2022/09/14 10:11:59;;;;;;;3.15;1.40;;;28.30;77.00;;;;;;6338235;22;20002;-81
2022/09/14 10:14:34;;;;;;;2.05;0.95;;;28.20;77.90;;;;;;6310836;22;20055;-81
2022/09/14 10:17:20;;;;;;;2.92;1.20;;;28.10;78.40;;;;;;6337114;22;19999;-80
2022/09/14 10:19:54;;;;;;;2.40;1.00;;;28.10;78.50;;;;;;6308834;22;20037;-81
2022/09/14 10:22:29;;;;;;;3.92;1.35;;;28.20;78.90;;;;;;6337626;22;20033;-81
2022/09/14 10:25:01;;;;;;;3.60;1.33;;;28.20;78.70;;;;;;6310449;22;20003;-76
2022/09/14 10:27:38;;;;;;;4.13;1.13;;;28.20;78.40;;;;;;6337754;22;20139;-77
2022/09/14 10:30:09;;;;;;;5.53;1.60;;;28.30;78.00;;;;;;6337003;22;20014;-77
2022/09/14 10:32:36;;;;;;;3.90;1.30;;;28.30;77.50;;;;;;6336299;22;20010;-77
2022/09/14 10:35:12;;;;;;;4.22;1.40;;;28.30;77.60;;;;;;6335532;22;19999;-82
2022/09/14 10:37:56;;;;;;;4.25;1.63;;;28.30;77.20;;;;;;6309664;22;20052;-81
2022/09/14 10:40:34;;;;;;;2.58;1.23;;;28.40;77.10;;;;;;6337945;22;19999;-82
2022/09/14 10:43:21;;;;;;;2.72;1.13;;;28.40;76.10;;;;;;6337950;22;20003;-78
2022/09/14 10:45:51;;;;;;;2.47;1.40;;;28.50;76.40;;;;;;6336906;22;19999;-79
2022/09/14 10:48:26;;;;;;;3.30;1.25;;;28.50;76.40;;;;;;6337209;22;20077;-79
2022/09/14 10:50:56;;;;;;;2.38;1.40;;;28.60;76.00;;;;;;6337587;22;20033;-79
2022/09/14 10:53:36;;;;;;;7.80;1.52;;;28.80;75.30;;;;;;6309714;22;20029;-78
2022/09/14 10:56:09;;;;;;;4.43;1.60;;;28.80;74.30;;;;;;6337660;22;20317;-79
2022/09/14 10:59:08;;;;;;;2.08;1.30;;;28.90;73.80;;;;;;6338082;22;20030;-78
2022/09/14 11:01:43;;;;;;;1.40;1.00;;;29.10;73.00;;;;;;6337734;22;20006;-78
2022/09/14 11:04:33;;;;;;;6.97;1.58;;;29.20;72.90;;;;;;6337429;22;20013;-79
2022/09/14 11:07:16;;;;;;;4.70;1.90;;;29.30;72.70;;;;;;6310326;22;19998;-79
2022/09/14 11:09:58;;;;;;;1.98;1.30;;;29.50;72.80;;;;;;6310406;22;20002;-79
2022/09/14 11:12:46;;;;;;;3.75;1.73;;;29.80;73.10;;;;;;6337941;22;20430;-79
2022/09/14 11:15:31;;;;;;;5.00;1.95;;;30.00;72.00;;;;;;6309160;22;20333;-78
2022/09/14 11:18:18;;;;;;;4.28;1.90;;;30.30;71.60;;;;;;6336324;22;20357;-79
2022/09/14 11:21:08;;;;;;;2.47;1.60;;;30.50;71.30;;;;;;6336219;22;20142;-76
2022/09/14 11:24:00;;;;;;;;;;;30.70;71.10;;;;;;6335746;22;20394;-77
2022/09/14 11:26:38;;;;;;;2.95;1.42;;;30.90;70.60;;;;;;6287720;22;19909;-80
2022/09/14 11:29:30;;;;;;;5.47;2.58;;;31.00;70.40;;;;;;6336774;22;20003;-80
2022/09/14 11:32:12;;;;;;;5.47;1.92;;;31.20;69.40;;;;;;6336247;22;20018;-81
2022/09/14 11:34:41;;;;;;;4.50;1.60;;;31.40;68.80;;;;;;6309162;22;20003;-80
2022/09/14 11:37:16;;;;;;;4.32;1.40;;;31.60;68.60;;;;;;6336058;22;20128;-77
2022/09/14 11:39:59;;;;;;;5.22;1.10;;;31.60;66.60;;;;;;6336585;22;20716;-78
2022/09/14 11:42:31;;;;;;;3.15;1.38;;;31.50;66.40;;;;;;6336336;22;20003;-77
2022/09/14 11:45:16;;;;;;;3.63;1.40;;;31.30;65.80;;;;;;6336482;22;19998;-77
2022/09/14 11:47:56;;;;;;;2.45;1.20;;;31.20;66.10;;;;;;6338258;22;20018;-79
2022/09/14 11:50:26;;;;;;;5.18;1.60;;;31.00;65.80;;;;;;6337064;22;20007;-77
2022/09/14 11:53:10;;;;;;;4.20;1.50;;;30.80;65.80;;;;;;6338319;22;20089;-77
2022/09/14 11:55:40;;;;;;;3.33;1.63;;;30.70;65.20;;;;;;6310639;22;20030;-77
2022/09/14 11:58:14;;;;;;;7.28;1.77;;;30.60;65.80;;;;;;6338189;22;20003;-77
2022/09/14 12:00:45;;;;;;;5.50;1.35;;;30.60;66.10;;;;;;6338061;22;20003;-77
2022/09/14 12:03:17;;;;;;;11.45;2.15;;;30.80;66.10;;;;;;6338541;22;20067;-76
2022/09/14 12:05:44;;;;;;;5.65;1.83;;;31.00;64.10;;;;;;6339519;22;20448;-76
2022/09/14 12:08:34;;;;;;;4.32;1.58;;;31.40;64.30;;;;;;6339409;22;20048;-76
2022/09/14 12:11:01;;;;;;;6.28;1.60;;;31.70;63.20;;;;;;6339381;22;19995;-76
2022/09/14 12:13:27;;;;;;;3.13;1.30;;;31.80;63.00;;;;;;6339367;22;19995;-75
2022/09/14 12:16:07;;;;;;;4.53;1.55;;;31.60;63.30;;;;;;6339079;22;19999;-76
2022/09/14 12:18:38;;;;;;;6.18;1.75;;;31.50;63.80;;;;;;6340003;22;20470;-76
2022/09/14 12:21:15;;;;;;;2.60;1.50;;;31.30;63.80;;;;;;6311687;22;20007;-76
2022/09/14 12:23:44;;;;;;;2.83;1.40;;;31.20;64.60;;;;;;6339209;22;20003;-76
2022/09/14 12:26:09;;;;;;;6.18;1.67;;;31.20;65.00;;;;;;6338429;22;20107;-76
2022/09/14 12:28:38;;;;;;;8.30;2.35;;;31.20;65.30;;;;;;6339249;22;20014;-77
2022/09/14 12:31:03;;;;;;;5.43;2.05;;;31.30;64.90;;;;;;6338758;22;20007;-77
2022/09/14 12:33:32;;;;;;;5.50;2.03;;;31.30;64.80;;;;;;6338701;22;20012;-77
2022/09/14 12:36:01;;;;;;;2.55;1.33;;;31.10;65.30;;;;;;6334649;22;20025;-77
2022/09/14 12:38:30;;;;;;;4.03;1.45;;;31.00;65.80;;;;;;6338695;22;20006;-77
2022/09/14 12:41:22;;;;;;;4.28;1.88;;;30.90;66.20;;;;;;6338636;22;20421;-77
2022/09/14 12:43:48;;;;;;;2.72;1.38;;;30.80;66.10;;;;;;6338405;22;20013;-79
2022/09/14 12:46:20;;;;;;;3.03;1.48;;;30.80;66.60;;;;;;6339250;22;20332;-77
2022/09/14 12:51:20;;;;;;;5.80;1.83;;;30.90;66.20;;;;;;6338345;22;20010;-77
2022/09/14 12:54:12;;;;;;;5.03;1.65;;;31.00;66.00;;;;;;6334814;22;20006;-77
2022/09/14 12:57:09;;;;;;;2.92;1.50;;;31.00;65.90;;;;;;6323127;22;20094;-77
2022/09/14 12:59:53;;;;;;;6.35;1.75;;;31.20;65.30;;;;;;6336251;22;20003;-76
2022/09/14 13:02:28;;;;;;;7.50;1.45;;;31.20;65.60;;;;;;6333912;22;20044;-77
2022/09/14 13:04:56;;;;;;;2.42;1.45;;;31.20;65.50;;;;;;6334325;22;20018;-77
2022/09/14 13:07:32;;;;;;;4.10;1.50;;;31.10;64.90;;;;;;6335916;22;20420;-77
2022/09/14 13:09:59;;;;;;;5.70;1.70;;;31.00;64.60;;;;;;6335749;22;20446;-77
2022/09/14 13:12:29;;;;;;;3.30;1.60;;;30.90;65.30;;;;;;6335725;22;20003;-77